Terminal Aerodrome Forecast
Issued by NWS Wilmington, OH

Current Version | Previous Version | Graphics & Text | Print | Product List | Glossary On
Versions: 1 2 3 4 5 6 7 8 9 10 11 12 13 14 15
000
FTUS41 KILN 171032 AAB
TAFILN
TAF AMD
KILN 171032Z 1711/1806 19006KT P6SM VCTS SCT040CB OVC150
      TEMPO 1711/1713 5SM -TSRA BR BKN040CB
     FM171300 19010KT P6SM VCTS SCT040CB BKN090
     FM171700 21012G20KT P6SM -SHRA VCTS BKN040CB
     FM180300 22008KT P6SM BKN120=

USA.gov is the U.S. government's official web portal to all federal, state and local government web resources and services.